sensor_id;sensor_type;location;lat;lon;timestamp;pressure;altitude;pressure_sealevel;temperature;humidity
54369;BME280;40266;52.434;17.056;2022-12-18T00:02:19;102260.25;;;-4.74;92.85
54369;BME280;40266;52.434;17.056;2022-12-18T00:05:02;102260.11;;;-4.76;92.70
54369;BME280;40266;52.434;17.056;2022-12-18T00:07:45;102264.48;;;-4.77;92.99
54369;BME280;40266;52.434;17.056;2022-12-18T00:10:29;102268.30;;;-4.78;92.96
54369;BME280;40266;52.434;17.056;2022-12-18T00:13:12;102276.11;;;-4.79;92.96
54369;BME280;40266;52.434;17.056;2022-12-18T00:15:55;102272.33;;;-4.79;92.94
54369;BME280;40266;52.434;17.056;2022-12-18T00:18:38;102273.95;;;-4.83;92.86
54369;BME280;40266;52.434;17.056;2022-12-18T00:21:22;102273.66;;;-4.84;92.84
54369;BME280;40266;52.434;17.056;2022-12-18T00:24:05;102279.67;;;-4.89;92.81
54369;BME280;40266;52.434;17.056;2022-12-18T00:26:48;102281.33;;;-4.92;92.94
54369;BME280;40266;52.434;17.056;2022-12-18T00:29:31;102279.70;;;-4.93;93.15
54369;BME280;40266;52.434;17.056;2022-12-18T00:32:13;102280.88;;;-4.91;93.14
54369;BME280;40266;52.434;17.056;2022-12-18T00:34:56;102283.31;;;-4.90;93.21
54369;BME280;40266;52.434;17.056;2022-12-18T00:37:39;102285.11;;;-4.92;93.26
54369;BME280;40266;52.434;17.056;2022-12-18T00:40:22;102288.42;;;-4.95;93.08
54369;BME280;40266;52.434;17.056;2022-12-18T00:43:05;102294.23;;;-4.98;93.03
54369;BME280;40266;52.434;17.056;2022-12-18T00:45:48;102303.45;;;-5.00;93.00
54369;BME280;40266;52.434;17.056;2022-12-18T00:48:31;102306.27;;;-5.03;92.96
54369;BME280;40266;52.434;17.056;2022-12-18T00:51:13;102308.70;;;-5.05;93.11
54369;BME280;40266;52.434;17.056;2022-12-18T00:53:56;102314.86;;;-5.09;93.01
54369;BME280;40266;52.434;17.056;2022-12-18T00:56:40;102315.99;;;-5.12;93.01
54369;BME280;40266;52.434;17.056;2022-12-18T00:59:31;102318.48;;;-5.15;92.98
54369;BME280;40266;52.434;17.056;2022-12-18T01:02:14;102322.92;;;-5.20;92.98
54369;BME280;40266;52.434;17.056;2022-12-18T01:04:58;102324.45;;;-5.27;92.99
54369;BME280;40266;52.434;17.056;2022-12-18T01:07:40;102334.18;;;-5.30;93.14
54369;BME280;40266;52.434;17.056;2022-12-18T01:10:24;102335.59;;;-5.31;93.20
54369;BME280;40266;52.434;17.056;2022-12-18T01:13:08;102341.65;;;-5.32;93.07
54369;BME280;40266;52.434;17.056;2022-12-18T01:15:51;102339.73;;;-5.33;93.06
54369;BME280;40266;52.434;17.056;2022-12-18T01:18:34;102343.41;;;-5.36;92.99
54369;BME280;40266;52.434;17.056;2022-12-18T01:21:17;102344.85;;;-5.42;92.95
54369;BME280;40266;52.434;17.056;2022-12-18T01:24:00;102345.33;;;-5.49;92.93
54369;BME280;40266;52.434;17.056;2022-12-18T01:26:43;102350.48;;;-5.53;93.17
54369;BME280;40266;52.434;17.056;2022-12-18T01:29:26;102351.79;;;-5.56;93.12
54369;BME280;40266;52.434;17.056;2022-12-18T01:32:09;102351.42;;;-5.59;93.12
54369;BME280;40266;52.434;17.056;2022-12-18T01:34:52;102355.70;;;-5.61;93.18
54369;BME280;40266;52.434;17.056;2022-12-18T01:37:35;102353.00;;;-5.60;93.48
54369;BME280;40266;52.434;17.056;2022-12-18T01:40:17;102357.75;;;-5.58;93.69
54369;BME280;40266;52.434;17.056;2022-12-18T01:43:00;102359.05;;;-5.59;93.57
54369;BME280;40266;52.434;17.056;2022-12-18T01:45:43;102359.42;;;-5.59;93.84
54369;BME280;40266;52.434;17.056;2022-12-18T01:48:26;102362.02;;;-5.58;93.73
54369;BME280;40266;52.434;17.056;2022-12-18T01:51:10;102360.15;;;-5.56;93.73
54369;BME280;40266;52.434;17.056;2022-12-18T01:53:55;102358.48;;;-5.53;94.01
54369;BME280;40266;52.434;17.056;2022-12-18T01:56:38;102358.39;;;-5.52;93.95
54369;BME280;40266;52.434;17.056;2022-12-18T01:59:21;102368.05;;;-5.53;93.87
54369;BME280;40266;52.434;17.056;2022-12-18T02:02:06;102369.97;;;-5.54;93.77
54369;BME280;40266;52.434;17.056;2022-12-18T02:04:50;102378.90;;;-5.60;93.36
54369;BME280;40266;52.434;17.056;2022-12-18T02:07:55;102379.91;;;-5.65;93.18
54369;BME280;40266;52.434;17.056;2022-12-18T02:10:52;102383.80;;;-5.67;93.38
54369;BME280;40266;52.434;17.056;2022-12-18T02:14:19;102383.32;;;-5.69;93.33
54369;BME280;40266;52.434;17.056;2022-12-18T02:17:17;102387.72;;;-5.72;93.25
54369;BME280;40266;52.434;17.056;2022-12-18T02:20:24;102389.12;;;-5.74;93.34
54369;BME280;40266;52.434;17.056;2022-12-18T02:26:14;102390.84;;;-5.87;93.00
54369;BME280;40266;52.434;17.056;2022-12-18T02:29:02;102386.29;;;-5.91;93.19
54369;BME280;40266;52.434;17.056;2022-12-18T02:31:52;102396.83;;;-5.88;92.92
54369;BME280;40266;52.434;17.056;2022-12-18T02:34:39;102392.86;;;-5.89;93.21
54369;BME280;40266;52.434;17.056;2022-12-18T02:37:27;102395.95;;;-5.91;92.92
54369;BME280;40266;52.434;17.056;2022-12-18T02:40:12;102396.48;;;-5.94;92.79
54369;BME280;40266;52.434;17.056;2022-12-18T02:43:12;102401.66;;;-5.97;92.66
54369;BME280;40266;52.434;17.056;2022-12-18T02:45:58;102402.17;;;-6.01;92.40
54369;BME280;40266;52.434;17.056;2022-12-18T02:48:45;102399.94;;;-6.08;92.40
54369;BME280;40266;52.434;17.056;2022-12-18T02:54:36;102408.86;;;-6.14;92.26
54369;BME280;40266;52.434;17.056;2022-12-18T03:00:19;102409.12;;;-6.21;92.35
54369;BME280;40266;52.434;17.056;2022-12-18T03:06:23;102412.30;;;-6.29;92.09
54369;BME280;40266;52.434;17.056;2022-12-18T03:09:14;102405.31;;;-6.35;91.93
54369;BME280;40266;52.434;17.056;2022-12-18T03:12:15;102411.41;;;-6.42;92.10
54369;BME280;40266;52.434;17.056;2022-12-18T03:15:22;102412.70;;;-6.49;91.84
54369;BME280;40266;52.434;17.056;2022-12-18T03:18:17;102417.91;;;-6.54;91.78
54369;BME280;40266;52.434;17.056;2022-12-18T03:21:05;102418.73;;;-6.57;91.91
54369;BME280;40266;52.434;17.056;2022-12-18T03:23:51;102424.91;;;-6.63;91.66
54369;BME280;40266;52.434;17.056;2022-12-18T03:26:38;102427.77;;;-6.67;91.69
54369;BME280;40266;52.434;17.056;2022-12-18T03:29:26;102433.59;;;-6.75;91.41
54369;BME280;40266;52.434;17.056;2022-12-18T03:32:24;102437.23;;;-6.85;91.28
54369;BME280;40266;52.434;17.056;2022-12-18T03:35:10;102439.18;;;-6.92;91.47
54369;BME280;40266;52.434;17.056;2022-12-18T03:37:55;102442.23;;;-6.94;91.57
54369;BME280;40266;52.434;17.056;2022-12-18T03:43:52;102443.91;;;-7.03;91.74
54369;BME280;40266;52.434;17.056;2022-12-18T03:47:13;102448.65;;;-7.06;91.71
54369;BME280;40266;52.434;17.056;2022-12-18T03:50:06;102450.55;;;-7.11;91.70
54369;BME280;40266;52.434;17.056;2022-12-18T03:53:02;102454.30;;;-7.15;91.86
54369;BME280;40266;52.434;17.056;2022-12-18T03:55:49;102458.52;;;-7.15;91.83
54369;BME280;40266;52.434;17.056;2022-12-18T03:58:36;102462.11;;;-7.15;91.95
54369;BME280;40266;52.434;17.056;2022-12-18T04:01:34;102461.46;;;-7.19;91.92
54369;BME280;40266;52.434;17.056;2022-12-18T04:04:18;102462.92;;;-7.20;92.00
54369;BME280;40266;52.434;17.056;2022-12-18T04:07:03;102459.21;;;-7.19;92.12
54369;BME280;40266;52.434;17.056;2022-12-18T04:09:50;102462.84;;;-7.18;92.02
54369;BME280;40266;52.434;17.056;2022-12-18T04:12:37;102461.64;;;-7.19;92.05
54369;BME280;40266;52.434;17.056;2022-12-18T04:15:21;102459.35;;;-7.17;91.99
54369;BME280;40266;52.434;17.056;2022-12-18T04:18:04;102460.60;;;-7.19;92.10
54369;BME280;40266;52.434;17.056;2022-12-18T04:20:53;102458.69;;;-7.22;92.06
54369;BME280;40266;52.434;17.056;2022-12-18T04:23:36;102466.98;;;-7.22;92.11
54369;BME280;40266;52.434;17.056;2022-12-18T04:26:19;102465.99;;;-7.24;92.14
54369;BME280;40266;52.434;17.056;2022-12-18T04:29:12;102473.21;;;-7.23;92.55
54369;BME280;40266;52.434;17.056;2022-12-18T04:31:55;102477.06;;;-7.21;92.50
54369;BME280;40266;52.434;17.056;2022-12-18T04:34:39;102479.17;;;-7.23;92.43
54369;BME280;40266;52.434;17.056;2022-12-18T04:37:22;102481.05;;;-7.22;92.68
54369;BME280;40266;52.434;17.056;2022-12-18T04:40:05;102482.44;;;-7.22;92.44
54369;BME280;40266;52.434;17.056;2022-12-18T04:42:53;102485.97;;;-7.24;92.51
54369;BME280;40266;52.434;17.056;2022-12-18T04:45:36;102488.95;;;-7.27;92.45
54369;BME280;40266;52.434;17.056;2022-12-18T04:48:20;102487.80;;;-7.33;92.51
54369;BME280;40266;52.434;17.056;2022-12-18T04:51:04;102495.70;;;-7.32;92.61
54369;BME280;40266;52.434;17.056;2022-12-18T04:53:47;102499.95;;;-7.28;92.81
54369;BME280;40266;52.434;17.056;2022-12-18T04:56:31;102499.36;;;-7.25;92.90
54369;BME280;40266;52.434;17.056;2022-12-18T04:59:14;102498.33;;;-7.23;93.01
54369;BME280;40266;52.434;17.056;2022-12-18T05:01:59;102500.70;;;-7.25;92.98
54369;BME280;40266;52.434;17.056;2022-12-18T05:04:42;102503.70;;;-7.26;92.88
54369;BME280;40266;52.434;17.056;2022-12-18T05:07:25;102506.88;;;-7.26;92.92
54369;BME280;40266;52.434;17.056;2022-12-18T05:10:08;102508.70;;;-7.29;92.93
54369;BME280;40266;52.434;17.056;2022-12-18T05:12:51;102508.80;;;-7.27;93.11
54369;BME280;40266;52.434;17.056;2022-12-18T05:15:42;102508.91;;;-7.26;93.32
54369;BME280;40266;52.434;17.056;2022-12-18T05:18:25;102513.57;;;-7.23;93.00
54369;BME280;40266;52.434;17.056;2022-12-18T05:21:08;102517.30;;;-7.24;93.05
54369;BME280;40266;52.434;17.056;2022-12-18T05:23:51;102520.93;;;-7.26;92.87
54369;BME280;40266;52.434;17.056;2022-12-18T05:26:33;102522.48;;;-7.28;92.83
54369;BME280;40266;52.434;17.056;2022-12-18T05:29:16;102526.63;;;-7.29;92.98
54369;BME280;40266;52.434;17.056;2022-12-18T05:31:59;102534.46;;;-7.33;92.78
54369;BME280;40266;52.434;17.056;2022-12-18T05:34:42;102537.13;;;-7.33;92.97
54369;BME280;40266;52.434;17.056;2022-12-18T05:37:24;102542.29;;;-7.35;92.83
54369;BME280;40266;52.434;17.056;2022-12-18T05:40:08;102548.55;;;-7.35;92.80
54369;BME280;40266;52.434;17.056;2022-12-18T05:42:51;102546.59;;;-7.36;92.95
54369;BME280;40266;52.434;17.056;2022-12-18T05:45:36;102550.05;;;-7.39;92.77
54369;BME280;40266;52.434;17.056;2022-12-18T05:48:19;102551.98;;;-7.43;92.89
54369;BME280;40266;52.434;17.056;2022-12-18T05:51:07;102554.15;;;-7.45;92.78
54369;BME280;40266;52.434;17.056;2022-12-18T05:53:51;102558.02;;;-7.46;92.98
54369;BME280;40266;52.434;17.056;2022-12-18T05:56:34;102553.34;;;-7.47;93.08
54369;BME280;40266;52.434;17.056;2022-12-18T05:59:16;102553.40;;;-7.46;93.00
54369;BME280;40266;52.434;17.056;2022-12-18T06:01:59;102558.55;;;-7.45;93.17
54369;BME280;40266;52.434;17.056;2022-12-18T06:04:42;102567.11;;;-7.45;93.31
54369;BME280;40266;52.434;17.056;2022-12-18T06:07:25;102576.71;;;-7.44;93.20
54369;BME280;40266;52.434;17.056;2022-12-18T06:10:08;102581.77;;;-7.42;93.53
54369;BME280;40266;52.434;17.056;2022-12-18T06:12:51;102590.73;;;-7.38;93.37
54369;BME280;40266;52.434;17.056;2022-12-18T06:15:36;102596.29;;;-7.36;93.41
54369;BME280;40266;52.434;17.056;2022-12-18T06:18:19;102593.98;;;-7.35;93.20
54369;BME280;40266;52.434;17.056;2022-12-18T06:21:02;102601.81;;;-7.35;93.20
54369;BME280;40266;52.434;17.056;2022-12-18T06:23:44;102604.04;;;-7.33;93.17
54369;BME280;40266;52.434;17.056;2022-12-18T06:26:27;102611.61;;;-7.30;93.33
54369;BME280;40266;52.434;17.056;2022-12-18T06:29:11;102612.36;;;-7.31;93.27
54369;BME280;40266;52.434;17.056;2022-12-18T06:31:54;102618.14;;;-7.33;93.16
54369;BME280;40266;52.434;17.056;2022-12-18T06:34:37;102621.91;;;-7.35;93.13
54369;BME280;40266;52.434;17.056;2022-12-18T06:37:21;102627.06;;;-7.40;93.10
54369;BME280;40266;52.434;17.056;2022-12-18T06:40:04;102630.63;;;-7.44;93.01
54369;BME280;40266;52.434;17.056;2022-12-18T06:42:47;102632.26;;;-7.45;93.17
54369;BME280;40266;52.434;17.056;2022-12-18T06:45:30;102632.39;;;-7.47;93.06
54369;BME280;40266;52.434;17.056;2022-12-18T06:48:13;102631.02;;;-7.49;92.97
54369;BME280;40266;52.434;17.056;2022-12-18T06:50:56;102625.33;;;-7.49;93.29
54369;BME280;40266;52.434;17.056;2022-12-18T06:53:39;102624.11;;;-7.49;93.19
54369;BME280;40266;52.434;17.056;2022-12-18T06:56:22;102628.11;;;-7.48;93.19
54369;BME280;40266;52.434;17.056;2022-12-18T06:59:05;102627.91;;;-7.46;93.21
54369;BME280;40266;52.434;17.056;2022-12-18T07:01:48;102631.60;;;-7.45;93.28
54369;BME280;40266;52.434;17.056;2022-12-18T07:04:31;102636.78;;;-7.44;93.24
54369;BME280;40266;52.434;17.056;2022-12-18T07:07:14;102640.16;;;-7.42;93.21
54369;BME280;40266;52.434;17.056;2022-12-18T07:09:57;102642.14;;;-7.44;93.21
54369;BME280;40266;52.434;17.056;2022-12-18T07:12:39;102646.40;;;-7.46;93.15
54369;BME280;40266;52.434;17.056;2022-12-18T07:15:23;102652.64;;;-7.47;93.28
54369;BME280;40266;52.434;17.056;2022-12-18T07:18:06;102657.00;;;-7.47;93.54
54369;BME280;40266;52.434;17.056;2022-12-18T07:20:49;102664.31;;;-7.45;93.44
54369;BME280;40266;52.434;17.056;2022-12-18T07:23:32;102665.45;;;-7.46;93.47
54369;BME280;40266;52.434;17.056;2022-12-18T07:26:18;102664.12;;;-7.46;93.44
54369;BME280;40266;52.434;17.056;2022-12-18T07:29:02;102664.86;;;-7.43;93.58
54369;BME280;40266;52.434;17.056;2022-12-18T07:31:45;102675.08;;;-7.40;93.55
54369;BME280;40266;52.434;17.056;2022-12-18T07:34:28;102673.67;;;-7.37;93.79
54369;BME280;40266;52.434;17.056;2022-12-18T07:37:12;102676.63;;;-7.34;93.67
54369;BME280;40266;52.434;17.056;2022-12-18T07:39:55;102675.11;;;-7.32;93.67
54369;BME280;40266;52.434;17.056;2022-12-18T07:42:41;102679.13;;;-7.29;94.01
54369;BME280;40266;52.434;17.056;2022-12-18T07:45:29;102685.20;;;-7.26;93.82
54369;BME280;40266;52.434;17.056;2022-12-18T07:48:12;102689.23;;;-7.20;94.06
54369;BME280;40266;52.434;17.056;2022-12-18T07:51:05;102694.27;;;-7.15;93.99
54369;BME280;40266;52.434;17.056;2022-12-18T07:53:48;102703.65;;;-7.12;94.04
54369;BME280;40266;52.434;17.056;2022-12-18T07:56:35;102703.14;;;-7.10;93.98
54369;BME280;40266;52.434;17.056;2022-12-18T07:59:20;102702.70;;;-7.07;93.88
54369;BME280;40266;52.434;17.056;2022-12-18T08:02:02;102712.66;;;-7.05;94.02
54369;BME280;40266;52.434;17.056;2022-12-18T08:04:45;102716.40;;;-7.02;94.00
54369;BME280;40266;52.434;17.056;2022-12-18T08:07:28;102720.23;;;-7.06;93.66
54369;BME280;40266;52.434;17.056;2022-12-18T08:10:12;102721.50;;;-7.07;93.71
54369;BME280;40266;52.434;17.056;2022-12-18T08:12:55;102729.98;;;-7.05;93.80
54369;BME280;40266;52.434;17.056;2022-12-18T08:15:43;102734.21;;;-7.00;94.14
54369;BME280;40266;52.434;17.056;2022-12-18T08:18:26;102739.10;;;-6.97;93.96
54369;BME280;40266;52.434;17.056;2022-12-18T08:21:11;102739.33;;;-6.96;93.98
54369;BME280;40266;52.434;17.056;2022-12-18T08:23:57;102744.65;;;-6.96;93.81
54369;BME280;40266;52.434;17.056;2022-12-18T08:26:40;102749.22;;;-6.94;93.95
54369;BME280;40266;52.434;17.056;2022-12-18T08:29:33;102745.45;;;-6.92;94.02
54369;BME280;40266;52.434;17.056;2022-12-18T08:32:16;102743.45;;;-6.92;93.84
54369;BME280;40266;52.434;17.056;2022-12-18T08:34:59;102742.20;;;-6.91;94.08
54369;BME280;40266;52.434;17.056;2022-12-18T08:37:41;102744.94;;;-6.89;93.96
54369;BME280;40266;52.434;17.056;2022-12-18T08:40:25;102742.98;;;-6.87;93.99
54369;BME280;40266;52.434;17.056;2022-12-18T08:43:10;102743.09;;;-6.86;93.95
54369;BME280;40266;52.434;17.056;2022-12-18T08:46:12;102744.45;;;-6.82;94.08
54369;BME280;40266;52.434;17.056;2022-12-18T08:48:55;102747.10;;;-6.81;93.99
54369;BME280;40266;52.434;17.056;2022-12-18T08:51:39;102736.88;;;-6.80;93.90
54369;BME280;40266;52.434;17.056;2022-12-18T08:54:23;102727.17;;;-6.77;93.94
54369;BME280;40266;52.434;17.056;2022-12-18T08:57:06;102720.08;;;-6.77;93.93
54369;BME280;40266;52.434;17.056;2022-12-18T08:59:49;102716.48;;;-6.77;94.06
54369;BME280;40266;52.434;17.056;2022-12-18T09:02:32;102714.25;;;-6.76;94.03
54369;BME280;40266;52.434;17.056;2022-12-18T09:05:15;102710.95;;;-6.73;93.97
54369;BME280;40266;52.434;17.056;2022-12-18T09:07:58;102705.74;;;-6.68;94.16
54369;BME280;40266;52.434;17.056;2022-12-18T09:10:43;102699.08;;;-6.64;94.21
54369;BME280;40266;52.434;17.056;2022-12-18T09:13:26;102700.83;;;-6.60;94.32
54369;BME280;40266;52.434;17.056;2022-12-18T09:16:08;102693.13;;;-6.56;94.15
54369;BME280;40266;52.434;17.056;2022-12-18T09:18:52;102687.67;;;-6.52;94.32
54369;BME280;40266;52.434;17.056;2022-12-18T09:21:41;102695.12;;;-6.48;94.42
54369;BME280;40266;52.434;17.056;2022-12-18T09:24:34;102693.39;;;-6.45;94.53
54369;BME280;40266;52.434;17.056;2022-12-18T09:27:16;102692.23;;;-6.40;94.45
54369;BME280;40266;52.434;17.056;2022-12-18T09:30:00;102697.11;;;-6.37;94.52
54369;BME280;40266;52.434;17.056;2022-12-18T09:32:43;102711.83;;;-6.30;94.77
54369;BME280;40266;52.434;17.056;2022-12-18T09:35:26;102713.21;;;-6.24;94.69
54369;BME280;40266;52.434;17.056;2022-12-18T09:38:16;102717.31;;;-6.21;94.46
54369;BME280;40266;52.434;17.056;2022-12-18T09:41:03;102718.52;;;-6.14;94.58
54369;BME280;40266;52.434;17.056;2022-12-18T09:43:53;102715.31;;;-6.12;94.54
54369;BME280;40266;52.434;17.056;2022-12-18T09:46:45;102713.45;;;-6.08;94.58
54369;BME280;40266;52.434;17.056;2022-12-18T09:49:32;102710.15;;;-6.05;94.58
54369;BME280;40266;52.434;17.056;2022-12-18T09:52:27;102707.25;;;-6.03;94.41
54369;BME280;40266;52.434;17.056;2022-12-18T09:58:33;102704.10;;;-5.96;94.58
54369;BME280;40266;52.434;17.056;2022-12-18T10:01:21;102705.77;;;-5.89;94.65
54369;BME280;40266;52.434;17.056;2022-12-18T10:04:08;102709.20;;;-5.83;94.60
54369;BME280;40266;52.434;17.056;2022-12-18T10:07:18;102711.52;;;-5.77;94.67
54369;BME280;40266;52.434;17.056;2022-12-18T10:10:07;102710.42;;;-5.69;94.98
54369;BME280;40266;52.434;17.056;2022-12-18T10:13:08;102713.38;;;-5.65;94.64
54369;BME280;40266;52.434;17.056;2022-12-18T10:28:07;102706.13;;;-5.45;94.82
54369;BME280;40266;52.434;17.056;2022-12-18T10:30:52;102713.15;;;-5.42;94.78
54369;BME280;40266;52.434;17.056;2022-12-18T10:33:35;102723.63;;;-5.39;94.72
54369;BME280;40266;52.434;17.056;2022-12-18T10:36:18;102724.73;;;-5.36;94.87
54369;BME280;40266;52.434;17.056;2022-12-18T10:39:19;102727.05;;;-5.30;94.91
54369;BME280;40266;52.434;17.056;2022-12-18T10:42:16;102721.12;;;-5.25;94.82
54369;BME280;40266;52.434;17.056;2022-12-18T10:47:51;102724.65;;;-5.15;94.95
54369;BME280;40266;52.434;17.056;2022-12-18T10:50:35;102722.17;;;-5.16;94.57
54369;BME280;40266;52.434;17.056;2022-12-18T10:53:41;102720.91;;;-5.13;94.79
54369;BME280;40266;52.434;17.056;2022-12-18T10:56:27;102722.20;;;-5.10;94.88
54369;BME280;40266;52.434;17.056;2022-12-18T10:59:13;102719.85;;;-5.07;94.78
54369;BME280;40266;52.434;17.056;2022-12-18T11:01:57;102713.04;;;-5.02;94.91
54369;BME280;40266;52.434;17.056;2022-12-18T11:04:51;102712.00;;;-4.96;94.94
54369;BME280;40266;52.434;17.056;2022-12-18T11:07:46;102717.36;;;-4.89;95.00
54369;BME280;40266;52.434;17.056;2022-12-18T11:10:33;102713.34;;;-4.83;95.13
54369;BME280;40266;52.434;17.056;2022-12-18T11:13:21;102707.19;;;-4.81;94.93
54369;BME280;40266;52.434;17.056;2022-12-18T11:16:04;102699.56;;;-4.78;94.84
54369;BME280;40266;52.434;17.056;2022-12-18T11:18:48;102699.83;;;-4.73;95.16
54369;BME280;40266;52.434;17.056;2022-12-18T11:21:39;102696.92;;;-4.66;95.02
54369;BME280;40266;52.434;17.056;2022-12-18T11:24:29;102703.71;;;-4.60;95.02
54369;BME280;40266;52.434;17.056;2022-12-18T11:27:18;102701.60;;;-4.56;94.92
54369;BME280;40266;52.434;17.056;2022-12-18T11:33:19;102701.41;;;-4.48;94.72
54369;BME280;40266;52.434;17.056;2022-12-18T11:36:04;102687.25;;;-4.43;94.83
54369;BME280;40266;52.434;17.056;2022-12-18T11:38:52;102684.64;;;-4.39;94.59
54369;BME280;40266;52.434;17.056;2022-12-18T11:47:58;102694.36;;;-4.39;94.38
54369;BME280;40266;52.434;17.056;2022-12-18T11:53:27;102699.63;;;-4.40;94.10
54369;BME280;40266;52.434;17.056;2022-12-18T12:05:51;102709.32;;;-4.40;94.16
54369;BME280;40266;52.434;17.056;2022-12-18T12:09:43;102713.58;;;-4.40;94.09
54369;BME280;40266;52.434;17.056;2022-12-18T12:15:16;102713.33;;;-4.39;94.07
54369;BME280;40266;52.434;17.056;2022-12-18T12:23:50;102736.94;;;-4.31;94.43
54369;BME280;40266;52.434;17.056;2022-12-18T12:26:49;102737.85;;;-4.28;94.32
54369;BME280;40266;52.434;17.056;2022-12-18T12:30:11;102735.33;;;-4.23;94.31
54369;BME280;40266;52.434;17.056;2022-12-18T12:36:40;102737.69;;;-4.17;93.90
54369;BME280;40266;52.434;17.056;2022-12-18T12:39:34;102732.45;;;-4.16;93.90
54369;BME280;40266;52.434;17.056;2022-12-18T12:45:39;102726.44;;;-4.10;93.81
54369;BME280;40266;52.434;17.056;2022-12-18T12:51:36;102724.82;;;-4.09;93.50
54369;BME280;40266;52.434;17.056;2022-12-18T12:54:24;102728.92;;;-4.06;93.55
54369;BME280;40266;52.434;17.056;2022-12-18T12:57:34;102732.90;;;-4.05;93.38
54369;BME280;40266;52.434;17.056;2022-12-18T13:00:20;102729.92;;;-4.09;93.24
54369;BME280;40266;52.434;17.056;2022-12-18T13:05:59;102723.52;;;-4.15;93.41
54369;BME280;40266;52.434;17.056;2022-12-18T13:08:58;102723.90;;;-4.14;93.31
54369;BME280;40266;52.434;17.056;2022-12-18T13:11:45;102715.36;;;-4.12;93.30
54369;BME280;40266;52.434;17.056;2022-12-18T13:14:46;102710.30;;;-4.11;93.32
54369;BME280;40266;52.434;17.056;2022-12-18T13:17:30;102704.78;;;-4.12;93.23
54369;BME280;40266;52.434;17.056;2022-12-18T13:20:14;102709.06;;;-4.16;93.08
54369;BME280;40266;52.434;17.056;2022-12-18T13:22:58;102710.45;;;-4.27;92.60
54369;BME280;40266;52.434;17.056;2022-12-18T13:25:41;102706.70;;;-4.36;92.65
54369;BME280;40266;52.434;17.056;2022-12-18T13:34:25;102714.13;;;-4.53;92.62
54369;BME280;40266;52.434;17.056;2022-12-18T13:40:53;102713.20;;;-4.54;92.77
54369;BME280;40266;52.434;17.056;2022-12-18T13:43:43;102715.05;;;-4.61;92.51
54369;BME280;40266;52.434;17.056;2022-12-18T13:46:43;102722.13;;;-4.73;92.30
54369;BME280;40266;52.434;17.056;2022-12-18T13:52:26;102730.02;;;-4.88;92.54
54369;BME280;40266;52.434;17.056;2022-12-18T13:55:18;102737.19;;;-4.88;92.70
54369;BME280;40266;52.434;17.056;2022-12-18T13:58:05;102738.69;;;-4.86;92.82
54369;BME280;40266;52.434;17.056;2022-12-18T14:00:49;102739.69;;;-4.84;92.94
54369;BME280;40266;52.434;17.056;2022-12-18T14:03:33;102736.52;;;-4.81;93.07
54369;BME280;40266;52.434;17.056;2022-12-18T14:06:18;102731.83;;;-4.78;93.19
54369;BME280;40266;52.434;17.056;2022-12-18T14:09:02;102736.23;;;-4.78;92.94
54369;BME280;40266;52.434;17.056;2022-12-18T14:11:47;102730.20;;;-4.83;92.73
54369;BME280;40266;52.434;17.056;2022-12-18T14:14:31;102726.79;;;-4.88;92.59
54369;BME280;40266;52.434;17.056;2022-12-18T14:17:16;102731.08;;;-4.87;92.86
54369;BME280;40266;52.434;17.056;2022-12-18T14:20:00;102730.96;;;-4.89;92.77
54369;BME280;40266;52.434;17.056;2022-12-18T14:22:46;102731.89;;;-4.90;92.94
54369;BME280;40266;52.434;17.056;2022-12-18T14:25:32;102739.16;;;-4.91;93.00
54369;BME280;40266;52.434;17.056;2022-12-18T14:28:16;102744.45;;;-4.91;93.22
54369;BME280;40266;52.434;17.056;2022-12-18T14:31:02;102748.32;;;-4.94;93.12
54369;BME280;40266;52.434;17.056;2022-12-18T14:33:45;102752.30;;;-4.95;93.16
54369;BME280;40266;52.434;17.056;2022-12-18T14:36:29;102755.60;;;-4.94;93.29
54369;BME280;40266;52.434;17.056;2022-12-18T14:39:16;102758.79;;;-4.95;93.29
54369;BME280;40266;52.434;17.056;2022-12-18T14:42:00;102756.81;;;-4.96;93.18
54369;BME280;40266;52.434;17.056;2022-12-18T14:44:42;102762.65;;;-5.02;92.92
54369;BME280;40266;52.434;17.056;2022-12-18T14:47:45;102766.14;;;-5.12;92.56
54369;BME280;40266;52.434;17.056;2022-12-18T14:50:28;102767.55;;;-5.20;92.78
54369;BME280;40266;52.434;17.056;2022-12-18T14:53:18;102774.10;;;-5.25;92.75
54369;BME280;40266;52.434;17.056;2022-12-18T14:56:10;102785.84;;;-5.27;92.83
54369;BME280;40266;52.434;17.056;2022-12-18T14:59:12;102789.51;;;-5.35;92.59
54369;BME280;40266;52.434;17.056;2022-12-18T15:02:22;102794.23;;;-5.42;92.73
54369;BME280;40266;52.434;17.056;2022-12-18T15:07:57;102781.02;;;-5.56;92.80
54369;BME280;40266;52.434;17.056;2022-12-18T15:10:47;102771.79;;;-5.62;92.69
54369;BME280;40266;52.434;17.056;2022-12-18T15:13:30;102771.91;;;-5.65;92.88
54369;BME280;40266;52.434;17.056;2022-12-18T15:16:13;102768.98;;;-5.69;92.77
54369;BME280;40266;52.434;17.056;2022-12-18T15:18:56;102765.74;;;-5.72;93.05
54369;BME280;40266;52.434;17.056;2022-12-18T15:21:39;102761.61;;;-5.72;93.03
54369;BME280;40266;52.434;17.056;2022-12-18T15:24:29;102758.27;;;-5.74;93.19
54369;BME280;40266;52.434;17.056;2022-12-18T15:27:21;102756.20;;;-5.72;93.34
54369;BME280;40266;52.434;17.056;2022-12-18T15:33:25;102746.67;;;-5.72;93.60
54369;BME280;40266;52.434;17.056;2022-12-18T15:36:11;102742.73;;;-5.74;93.52
54369;BME280;40266;52.434;17.056;2022-12-18T15:38:59;102745.34;;;-5.78;93.44
54369;BME280;40266;52.434;17.056;2022-12-18T15:41:48;102742.95;;;-5.82;93.53
54369;BME280;40266;52.434;17.056;2022-12-18T15:45:00;102743.64;;;-5.82;93.57
54369;BME280;40266;52.434;17.056;2022-12-18T15:47:43;102744.52;;;-5.84;93.51
54369;BME280;40266;52.434;17.056;2022-12-18T15:50:26;102737.89;;;-5.86;93.55
54369;BME280;40266;52.434;17.056;2022-12-18T15:53:10;102730.96;;;-5.87;93.45
54369;BME280;40266;52.434;17.056;2022-12-18T15:55:55;102725.48;;;-5.91;93.42
54369;BME280;40266;52.434;17.056;2022-12-18T15:58:58;102719.13;;;-5.97;93.47